Terminal Aerodrome Forecast
Issued by NWS Los Angeles, CA

Home | Current Version | Previous Version | Text Only | Print | Product List | Glossary On
Versions: 1 2 3 4 5 6 7 8 9 10 11 12 13 14 15 16 17 18 19 20 21
000
FTUS46 KLOX 232300
TAFSMX
TAF
KSMX 232338Z 2400/2424 32015KT P6SM FEW010
     FM240130 32011KT P6SM FEW009
     FM240300 30004KT P6SM BKN007
     FM240600 VRB03KT 5SM BR OVC005
     FM240900 VRB03KT 2SM BR OVC002
     FM241600 VRB03KT 6SM BR OVC006
     FM241800 28006KT P6SM SKC
     FM242100 30011KT P6SM SKC=

USA.gov is the U.S. government's official web portal to all federal, state and local government web resources and services.